sensor_id;sensor_type;location;lat;lon;timestamp;pressure;altitude;pressure_sealevel;temperature;humidity
216;BME280;64590;48.81286795;9.14184224;2023-02-28T00:01:38;98958.41;;;-0.22;55.86
216;BME280;64590;48.81286795;9.14184224;2023-02-28T00:04:04;98960.50;;;-0.19;55.63
216;BME280;64590;48.81286795;9.14184224;2023-02-28T00:06:31;98943.41;;;-0.47;56.17
216;BME280;64590;48.81286795;9.14184224;2023-02-28T00:08:58;98960.97;;;-0.25;56.58
216;BME280;64590;48.81286795;9.14184224;2023-02-28T00:11:24;98957.28;;;-0.21;55.65
216;BME280;64590;48.81286795;9.14184224;2023-02-28T00:13:52;98955.34;;;-0.07;55.65
216;BME280;64590;48.81286795;9.14184224;2023-02-28T00:16:21;98955.69;;;-0.22;56.19
216;BME280;64590;48.81286795;9.14184224;2023-02-28T00:18:48;98955.94;;;-0.10;55.48
216;BME280;64590;48.81286795;9.14184224;2023-02-28T00:21:15;98950.84;;;-0.25;56.34
216;BME280;64590;48.81286795;9.14184224;2023-02-28T00:23:42;98954.53;;;-0.07;56.29
216;BME280;64590;48.81286795;9.14184224;2023-02-28T00:26:09;98956.66;;;-0.18;56.60
216;BME280;64590;48.81286795;9.14184224;2023-02-28T00:28:36;98959.59;;;-0.14;56.97
216;BME280;64590;48.81286795;9.14184224;2023-02-28T00:31:04;98959.91;;;-0.16;56.85
216;BME280;64590;48.81286795;9.14184224;2023-02-28T00:33:30;98953.44;;;-0.06;56.94
216;BME280;64590;48.81286795;9.14184224;2023-02-28T00:36:05;98955.59;;;-0.17;56.93
216;BME280;64590;48.81286795;9.14184224;2023-02-28T00:38:35;98962.19;;;0.05;56.02
216;BME280;64590;48.81286795;9.14184224;2023-02-28T00:41:01;98961.75;;;0.11;56.23
216;BME280;64590;48.81286795;9.14184224;2023-02-28T00:43:31;98955.75;;;0.01;56.62
216;BME280;64590;48.81286795;9.14184224;2023-02-28T00:45:57;98957.88;;;-0.10;57.45
216;BME280;64590;48.81286795;9.14184224;2023-02-28T00:48:26;98954.31;;;0.03;56.52
216;BME280;64590;48.81286795;9.14184224;2023-02-28T00:50:52;98956.09;;;0.08;57.15
216;BME280;64590;48.81286795;9.14184224;2023-02-28T00:53:19;98960.03;;;-0.21;58.09
216;BME280;64590;48.81286795;9.14184224;2023-02-28T00:55:46;98947.69;;;-0.18;57.77
216;BME280;64590;48.81286795;9.14184224;2023-02-28T00:58:12;98954.72;;;-0.04;57.62
216;BME280;64590;48.81286795;9.14184224;2023-02-28T01:00:39;98952.72;;;-0.12;57.49
216;BME280;64590;48.81286795;9.14184224;2023-02-28T01:03:05;98952.47;;;-0.24;58.70
216;BME280;64590;48.81286795;9.14184224;2023-02-28T01:05:33;98956.16;;;-0.06;58.61
216;BME280;64590;48.81286795;9.14184224;2023-02-28T01:08:00;98956.25;;;-0.11;59.00
216;BME280;64590;48.81286795;9.14184224;2023-02-28T01:10:27;98951.44;;;0.08;57.74
216;BME280;64590;48.81286795;9.14184224;2023-02-28T01:12:56;98954.47;;;0.07;57.61
216;BME280;64590;48.81286795;9.14184224;2023-02-28T01:15:23;98947.34;;;-0.03;59.19
216;BME280;64590;48.81286795;9.14184224;2023-02-28T01:17:49;98943.94;;;0.14;58.09
216;BME280;64590;48.81286795;9.14184224;2023-02-28T01:20:16;98948.03;;;0.03;58.99
216;BME280;64590;48.81286795;9.14184224;2023-02-28T01:22:44;98952.47;;;-0.02;58.35
216;BME280;64590;48.81286795;9.14184224;2023-02-28T01:25:11;98943.41;;;-0.11;59.30
216;BME280;64590;48.81286795;9.14184224;2023-02-28T01:27:38;98939.50;;;-0.18;59.79
216;BME280;64590;48.81286795;9.14184224;2023-02-28T01:30:06;98942.75;;;0.06;58.98
216;BME280;64590;48.81286795;9.14184224;2023-02-28T01:32:34;98951.91;;;-0.12;59.63
216;BME280;64590;48.81286795;9.14184224;2023-02-28T01:35:01;98938.09;;;-0.16;59.73
216;BME280;64590;48.81286795;9.14184224;2023-02-28T01:37:27;98943.78;;;-0.40;60.26
216;BME280;64590;48.81286795;9.14184224;2023-02-28T01:39:55;98944.84;;;-0.13;59.76
216;BME280;64590;48.81286795;9.14184224;2023-02-28T01:42:22;98945.97;;;-0.14;60.16
216;BME280;64590;48.81286795;9.14184224;2023-02-28T01:45:01;98946.84;;;-0.41;61.30
216;BME280;64590;48.81286795;9.14184224;2023-02-28T01:47:32;98944.06;;;-0.28;60.39
216;BME280;64590;48.81286795;9.14184224;2023-02-28T01:50:02;98941.97;;;-0.31;60.83
216;BME280;64590;48.81286795;9.14184224;2023-02-28T01:52:30;98945.97;;;-0.28;61.42
216;BME280;64590;48.81286795;9.14184224;2023-02-28T01:55:01;98945.84;;;-0.09;60.59
216;BME280;64590;48.81286795;9.14184224;2023-02-28T01:57:31;98940.66;;;-0.47;61.14
216;BME280;64590;48.81286795;9.14184224;2023-02-28T02:00:07;98938.47;;;-0.09;60.79
216;BME280;64590;48.81286795;9.14184224;2023-02-28T02:02:47;98933.94;;;-0.13;60.61
216;BME280;64590;48.81286795;9.14184224;2023-02-28T02:05:17;98934.31;;;-0.06;61.49
216;BME280;64590;48.81286795;9.14184224;2023-02-28T02:07:46;98932.41;;;-0.06;60.15
216;BME280;64590;48.81286795;9.14184224;2023-02-28T02:10:16;98921.97;;;-0.04;59.95
216;BME280;64590;48.81286795;9.14184224;2023-02-28T02:13:04;98932.19;;;-0.09;61.09
216;BME280;64590;48.81286795;9.14184224;2023-02-28T02:15:36;98928.66;;;-0.10;60.59
216;BME280;64590;48.81286795;9.14184224;2023-02-28T02:18:19;98924.94;;;-0.14;61.04
216;BME280;64590;48.81286795;9.14184224;2023-02-28T02:21:35;98916.84;;;-0.05;60.49
216;BME280;64590;48.81286795;9.14184224;2023-02-28T02:24:53;98927.78;;;-0.19;61.61
216;BME280;64590;48.81286795;9.14184224;2023-02-28T02:27:36;98918.78;;;-0.19;61.50
216;BME280;64590;48.81286795;9.14184224;2023-02-28T02:30:23;98910.75;;;-0.38;62.16
216;BME280;64590;48.81286795;9.14184224;2023-02-28T02:33:06;98907.75;;;-0.50;62.85
216;BME280;64590;48.81286795;9.14184224;2023-02-28T02:35:40;98909.06;;;-0.34;62.35
216;BME280;64590;48.81286795;9.14184224;2023-02-28T02:38:12;98902.66;;;-0.30;61.94
216;BME280;64590;48.81286795;9.14184224;2023-02-28T02:40:52;98912.53;;;-0.20;61.87
216;BME280;64590;48.81286795;9.14184224;2023-02-28T02:43:25;98908.88;;;-0.15;62.06
216;BME280;64590;48.81286795;9.14184224;2023-02-28T02:45:59;98903.97;;;-0.27;62.10
216;BME280;64590;48.81286795;9.14184224;2023-02-28T02:48:30;98910.34;;;-0.32;62.72
216;BME280;64590;48.81286795;9.14184224;2023-02-28T02:51:01;98907.22;;;-0.25;62.74
216;BME280;64590;48.81286795;9.14184224;2023-02-28T02:53:32;98906.25;;;-0.57;63.34
216;BME280;64590;48.81286795;9.14184224;2023-02-28T02:56:02;98905.44;;;-0.57;64.04
216;BME280;64590;48.81286795;9.14184224;2023-02-28T02:58:33;98902.22;;;-0.59;63.84
216;BME280;64590;48.81286795;9.14184224;2023-02-28T03:01:03;98907.06;;;-0.56;64.04
216;BME280;64590;48.81286795;9.14184224;2023-02-28T03:03:32;98909.28;;;-0.58;65.03
216;BME280;64590;48.81286795;9.14184224;2023-02-28T03:06:01;98913.72;;;-0.62;64.63
216;BME280;64590;48.81286795;9.14184224;2023-02-28T03:08:33;98897.28;;;-0.57;64.23
216;BME280;64590;48.81286795;9.14184224;2023-02-28T03:11:02;98912.41;;;-0.51;64.45
216;BME280;64590;48.81286795;9.14184224;2023-02-28T03:13:53;98909.59;;;-0.60;64.99
216;BME280;64590;48.81286795;9.14184224;2023-02-28T03:16:36;98916.25;;;-0.52;65.00
216;BME280;64590;48.81286795;9.14184224;2023-02-28T03:22:14;98907.47;;;-0.63;65.26
216;BME280;64590;48.81286795;9.14184224;2023-02-28T03:24:49;98918.13;;;-0.39;64.88
216;BME280;64590;48.81286795;9.14184224;2023-02-28T03:27:24;98916.63;;;-0.45;65.04
216;BME280;64590;48.81286795;9.14184224;2023-02-28T03:29:58;98914.41;;;-0.43;65.87
216;BME280;64590;48.81286795;9.14184224;2023-02-28T03:32:31;98922.91;;;-0.58;65.62
216;BME280;64590;48.81286795;9.14184224;2023-02-28T03:35:02;98910.28;;;-0.54;65.69
216;BME280;64590;48.81286795;9.14184224;2023-02-28T03:37:36;98916.97;;;-0.60;66.32
216;BME280;64590;48.81286795;9.14184224;2023-02-28T03:40:07;98910.59;;;-0.55;66.41
216;BME280;64590;48.81286795;9.14184224;2023-02-28T03:42:40;98905.44;;;-0.57;66.38
216;BME280;64590;48.81286795;9.14184224;2023-02-28T03:45:11;98905.53;;;-0.48;66.15
216;BME280;64590;48.81286795;9.14184224;2023-02-28T03:47:41;98902.50;;;-0.47;66.31
216;BME280;64590;48.81286795;9.14184224;2023-02-28T03:50:13;98907.22;;;-0.39;65.83
216;BME280;64590;48.81286795;9.14184224;2023-02-28T03:52:47;98897.75;;;-0.55;66.44
216;BME280;64590;48.81286795;9.14184224;2023-02-28T03:55:16;98907.25;;;-0.52;66.30
216;BME280;64590;48.81286795;9.14184224;2023-02-28T03:57:53;98902.00;;;-0.49;66.39
216;BME280;64590;48.81286795;9.14184224;2023-02-28T04:00:27;98905.63;;;-0.53;66.12
216;BME280;64590;48.81286795;9.14184224;2023-02-28T04:02:56;98900.41;;;-0.50;65.84
216;BME280;64590;48.81286795;9.14184224;2023-02-28T04:05:24;98907.25;;;-0.52;66.30
216;BME280;64590;48.81286795;9.14184224;2023-02-28T04:07:52;98906.84;;;-0.46;66.89
216;BME280;64590;48.81286795;9.14184224;2023-02-28T04:10:19;98915.00;;;-0.46;66.90
216;BME280;64590;48.81286795;9.14184224;2023-02-28T04:12:46;98918.25;;;-0.44;66.44
216;BME280;64590;48.81286795;9.14184224;2023-02-28T04:15:13;98919.34;;;-0.45;66.40
216;BME280;64590;48.81286795;9.14184224;2023-02-28T04:17:39;98923.50;;;-0.34;66.26
216;BME280;64590;48.81286795;9.14184224;2023-02-28T04:20:07;98913.72;;;-0.62;66.86
216;BME280;64590;48.81286795;9.14184224;2023-02-28T04:22:35;98913.22;;;-0.50;66.73
216;BME280;64590;48.81286795;9.14184224;2023-02-28T04:25:05;98918.03;;;-0.34;65.98
216;BME280;64590;48.81286795;9.14184224;2023-02-28T04:27:32;98921.13;;;-0.26;65.97
216;BME280;64590;48.81286795;9.14184224;2023-02-28T04:29:59;98917.03;;;-0.38;66.03
216;BME280;64590;48.81286795;9.14184224;2023-02-28T04:32:25;98919.16;;;-0.35;65.78
216;BME280;64590;48.81286795;9.14184224;2023-02-28T04:34:52;98912.50;;;-0.42;66.69
216;BME280;64590;48.81286795;9.14184224;2023-02-28T04:37:18;98915.59;;;-0.35;65.79
216;BME280;64590;48.81286795;9.14184224;2023-02-28T04:39:45;98909.97;;;-0.39;66.52
216;BME280;64590;48.81286795;9.14184224;2023-02-28T04:42:13;98902.72;;;-0.43;66.52
216;BME280;64590;48.81286795;9.14184224;2023-02-28T04:44:39;98910.88;;;-0.43;67.11
216;BME280;64590;48.81286795;9.14184224;2023-02-28T04:47:06;98910.38;;;-0.45;66.82
216;BME280;64590;48.81286795;9.14184224;2023-02-28T04:49:33;98907.63;;;-0.45;66.71
216;BME280;64590;48.81286795;9.14184224;2023-02-28T04:51:59;98912.41;;;-0.51;66.51
216;BME280;64590;48.81286795;9.14184224;2023-02-28T04:54:26;98908.16;;;-0.43;66.81
216;BME280;64590;48.81286795;9.14184224;2023-02-28T04:56:53;98912.03;;;-0.22;66.22
216;BME280;64590;48.81286795;9.14184224;2023-02-28T04:59:21;98910.75;;;-0.24;65.61
216;BME280;64590;48.81286795;9.14184224;2023-02-28T05:01:49;98909.00;;;-0.20;66.13
216;BME280;64590;48.81286795;9.14184224;2023-02-28T05:04:16;98890.94;;;-0.30;65.90
216;BME280;64590;48.81286795;9.14184224;2023-02-28T05:06:42;98910.13;;;-0.35;65.81
216;BME280;64590;48.81286795;9.14184224;2023-02-28T05:09:09;98918.97;;;-0.52;66.52
216;BME280;64590;48.81286795;9.14184224;2023-02-28T05:11:37;98921.28;;;-0.45;67.55
216;BME280;64590;48.81286795;9.14184224;2023-02-28T05:14:05;98912.34;;;-0.23;65.92
216;BME280;64590;48.81286795;9.14184224;2023-02-28T05:16:33;98911.47;;;-0.46;66.73
216;BME280;64590;48.81286795;9.14184224;2023-02-28T05:19:00;98912.19;;;-0.41;66.57
216;BME280;64590;48.81286795;9.14184224;2023-02-28T05:21:29;98913.63;;;-0.43;67.46
216;BME280;64590;48.81286795;9.14184224;2023-02-28T05:23:58;98916.84;;;-0.55;67.12
216;BME280;64590;48.81286795;9.14184224;2023-02-28T05:26:26;98920.09;;;-0.67;67.80
216;BME280;64590;48.81286795;9.14184224;2023-02-28T05:28:52;98916.53;;;-0.53;67.31
216;BME280;64590;48.81286795;9.14184224;2023-02-28T05:31:21;98918.16;;;-0.52;67.14
216;BME280;64590;48.81286795;9.14184224;2023-02-28T05:33:49;98916.03;;;-0.55;67.84
216;BME280;64590;48.81286795;9.14184224;2023-02-28T05:36:16;98916.72;;;-0.36;67.07
216;BME280;64590;48.81286795;9.14184224;2023-02-28T05:38:42;98922.38;;;-0.33;66.77
216;BME280;64590;48.81286795;9.14184224;2023-02-28T05:41:09;98924.78;;;-0.31;67.08
216;BME280;64590;48.81286795;9.14184224;2023-02-28T05:43:37;98917.81;;;-0.23;66.73
216;BME280;64590;48.81286795;9.14184224;2023-02-28T05:46:04;98919.97;;;-0.34;66.75
216;BME280;64590;48.81286795;9.14184224;2023-02-28T05:48:32;98924.16;;;-0.28;66.52
216;BME280;64590;48.81286795;9.14184224;2023-02-28T05:51:00;98919.81;;;-0.29;66.22
216;BME280;64590;48.81286795;9.14184224;2023-02-28T05:53:27;98929.31;;;-0.26;66.57
216;BME280;64590;48.81286795;9.14184224;2023-02-28T05:55:54;98922.06;;;-0.45;66.93
216;BME280;64590;48.81286795;9.14184224;2023-02-28T05:58:21;98921.47;;;-0.42;66.99
216;BME280;64590;48.81286795;9.14184224;2023-02-28T06:00:48;98931.75;;;-0.25;66.04
216;BME280;64590;48.81286795;9.14184224;2023-02-28T06:03:15;98927.78;;;-0.19;66.92
216;BME280;64590;48.81286795;9.14184224;2023-02-28T06:05:41;98924.78;;;-0.31;66.78
216;BME280;64590;48.81286795;9.14184224;2023-02-28T06:08:09;98930.44;;;-0.28;66.85
216;BME280;64590;48.81286795;9.14184224;2023-02-28T06:10:36;98924.97;;;-0.28;66.80
216;BME280;64590;48.81286795;9.14184224;2023-02-28T06:13:03;98928.81;;;-0.29;66.99
216;BME280;64590;48.81286795;9.14184224;2023-02-28T06:15:31;98936.59;;;-0.36;66.92
216;BME280;64590;48.81286795;9.14184224;2023-02-28T06:17:58;98935.06;;;-0.28;66.50
216;BME280;64590;48.81286795;9.14184224;2023-02-28T06:20:26;98928.94;;;-0.34;67.16
216;BME280;64590;48.81286795;9.14184224;2023-02-28T06:22:54;98936.31;;;-0.34;66.48
216;BME280;64590;48.81286795;9.14184224;2023-02-28T06:25:22;98943.47;;;-0.24;66.90
216;BME280;64590;48.81286795;9.14184224;2023-02-28T06:27:49;98939.63;;;-0.37;67.19
216;BME280;64590;48.81286795;9.14184224;2023-02-28T06:30:16;98940.53;;;-0.28;66.78
216;BME280;64590;48.81286795;9.14184224;2023-02-28T06:32:43;98945.69;;;-0.26;66.45
216;BME280;64590;48.81286795;9.14184224;2023-02-28T06:35:09;98953.97;;;-0.32;66.80
216;BME280;64590;48.81286795;9.14184224;2023-02-28T06:37:36;98949.59;;;-0.19;66.56
216;BME280;64590;48.81286795;9.14184224;2023-02-28T06:40:03;98954.34;;;-0.11;66.70
216;BME280;64590;48.81286795;9.14184224;2023-02-28T06:42:33;98964.09;;;-0.32;66.25
216;BME280;64590;48.81286795;9.14184224;2023-02-28T06:45:00;98959.31;;;-0.26;67.28
216;BME280;64590;48.81286795;9.14184224;2023-02-28T06:47:30;98958.81;;;-0.15;66.83
216;BME280;64590;48.81286795;9.14184224;2023-02-28T06:49:57;98959.28;;;-0.13;66.28
216;BME280;64590;48.81286795;9.14184224;2023-02-28T06:52:23;98956.16;;;-0.20;66.24
216;BME280;64590;48.81286795;9.14184224;2023-02-28T06:54:50;98964.03;;;-0.18;65.96
216;BME280;64590;48.81286795;9.14184224;2023-02-28T06:57:25;98961.28;;;-0.05;66.00
216;BME280;64590;48.81286795;9.14184224;2023-02-28T06:59:53;98962.75;;;-0.21;65.96
216;BME280;64590;48.81286795;9.14184224;2023-02-28T07:02:19;98961.22;;;-0.27;66.24
216;BME280;64590;48.81286795;9.14184224;2023-02-28T07:04:46;98971.94;;;-0.17;66.24
216;BME280;64590;48.81286795;9.14184224;2023-02-28T07:07:12;98970.59;;;-0.06;65.80
216;BME280;64590;48.81286795;9.14184224;2023-02-28T07:09:39;98967.78;;;-0.14;66.32
216;BME280;64590;48.81286795;9.14184224;2023-02-28T07:12:05;98972.22;;;-0.05;65.44
216;BME280;64590;48.81286795;9.14184224;2023-02-28T07:14:32;98972.69;;;-0.03;65.25
216;BME280;64590;48.81286795;9.14184224;2023-02-28T07:17:00;98979.44;;;-0.22;66.31
216;BME280;64590;48.81286795;9.14184224;2023-02-28T07:19:26;98984.78;;;-0.17;65.93
216;BME280;64590;48.81286795;9.14184224;2023-02-28T07:21:53;98981.03;;;-0.08;66.61
216;BME280;64590;48.81286795;9.14184224;2023-02-28T07:24:20;98985.22;;;-0.02;65.30
216;BME280;64590;48.81286795;9.14184224;2023-02-28T07:26:48;98980.47;;;0.04;64.76
216;BME280;64590;48.81286795;9.14184224;2023-02-28T07:29:15;98984.50;;;0.07;64.75
216;BME280;64590;48.81286795;9.14184224;2023-02-28T07:31:42;98974.72;;;0.06;65.35
216;BME280;64590;48.81286795;9.14184224;2023-02-28T07:34:09;98982.59;;;0.07;65.13
216;BME280;64590;48.81286795;9.14184224;2023-02-28T07:36:36;98987.31;;;0.15;66.27
216;BME280;64590;48.81286795;9.14184224;2023-02-28T07:39:02;98983.59;;;0.11;64.75
216;BME280;64590;48.81286795;9.14184224;2023-02-28T07:41:30;98987.63;;;0.14;66.22
216;BME280;64590;48.81286795;9.14184224;2023-02-28T07:43:59;98990.66;;;0.12;65.29
216;BME280;64590;48.81286795;9.14184224;2023-02-28T07:46:26;98988.00;;;0.21;64.48
216;BME280;64590;48.81286795;9.14184224;2023-02-28T07:48:54;98988.19;;;0.24;64.36
216;BME280;64590;48.81286795;9.14184224;2023-02-28T07:51:26;98980.94;;;0.20;64.47
216;BME280;64590;48.81286795;9.14184224;2023-02-28T07:53:52;98990.41;;;0.00;64.68
216;BME280;64590;48.81286795;9.14184224;2023-02-28T07:56:19;98985.53;;;-0.03;65.42
216;BME280;64590;48.81286795;9.14184224;2023-02-28T07:58:45;98990.16;;;0.10;65.17
216;BME280;64590;48.81286795;9.14184224;2023-02-28T08:01:12;98988.81;;;0.21;64.54
216;BME280;64590;48.81286795;9.14184224;2023-02-28T08:03:40;98992.16;;;0.18;64.45
216;BME280;64590;48.81286795;9.14184224;2023-02-28T08:06:08;98988.84;;;0.08;65.18
216;BME280;64590;48.81286795;9.14184224;2023-02-28T08:08:42;98995.63;;;0.10;65.00
216;BME280;64590;48.81286795;9.14184224;2023-02-28T08:11:09;98996.94;;;0.13;64.98
216;BME280;64590;48.81286795;9.14184224;2023-02-28T08:13:36;98997.88;;;0.31;64.65
216;BME280;64590;48.81286795;9.14184224;2023-02-28T08:16:03;99000.78;;;0.34;64.36
216;BME280;64590;48.81286795;9.14184224;2023-02-28T08:18:29;98996.28;;;0.30;64.01
216;BME280;64590;48.81286795;9.14184224;2023-02-28T08:20:56;98999.38;;;0.37;63.74
216;BME280;64590;48.81286795;9.14184224;2023-02-28T08:23:22;98999.31;;;0.28;64.29
216;BME280;64590;48.81286795;9.14184224;2023-02-28T08:25:54;98998.94;;;0.07;65.36
216;BME280;64590;48.81286795;9.14184224;2023-02-28T08:28:20;99001.34;;;0.22;65.04
216;BME280;64590;48.81286795;9.14184224;2023-02-28T08:30:47;98997.69;;;0.27;65.50
216;BME280;64590;48.81286795;9.14184224;2023-02-28T08:33:14;98995.91;;;0.45;64.34
216;BME280;64590;48.81286795;9.14184224;2023-02-28T08:35:40;99000.81;;;0.56;63.59
216;BME280;64590;48.81286795;9.14184224;2023-02-28T08:38:07;99005.78;;;0.54;64.16
216;BME280;64590;48.81286795;9.14184224;2023-02-28T08:40:34;99006.44;;;0.60;64.07
216;BME280;64590;48.81286795;9.14184224;2023-02-28T08:43:02;99010.97;;;0.42;64.06
216;BME280;64590;48.81286795;9.14184224;2023-02-28T08:45:28;99006.97;;;0.62;63.51
216;BME280;64590;48.81286795;9.14184224;2023-02-28T08:47:55;99004.84;;;0.59;64.57
216;BME280;64590;48.81286795;9.14184224;2023-02-28T08:50:21;99007.13;;;0.66;64.07
216;BME280;64590;48.81286795;9.14184224;2023-02-28T08:52:48;99007.31;;;0.69;63.97
216;BME280;64590;48.81286795;9.14184224;2023-02-28T08:55:15;99006.81;;;0.90;63.02
216;BME280;64590;48.81286795;9.14184224;2023-02-28T08:57:41;99008.50;;;0.77;63.01
216;BME280;64590;48.81286795;9.14184224;2023-02-28T09:00:11;99015.50;;;0.69;62.44
216;BME280;64590;48.81286795;9.14184224;2023-02-28T09:02:38;99007.56;;;0.81;62.57
216;BME280;64590;48.81286795;9.14184224;2023-02-28T09:05:06;99015.03;;;0.90;62.11
216;BME280;64590;48.81286795;9.14184224;2023-02-28T09:07:33;99019.09;;;1.01;62.25
216;BME280;64590;48.81286795;9.14184224;2023-02-28T09:09:59;99019.94;;;0.79;62.18
216;BME280;64590;48.81286795;9.14184224;2023-02-28T09:12:26;99016.16;;;0.66;62.85
216;BME280;64590;48.81286795;9.14184224;2023-02-28T09:14:54;99004.25;;;0.62;63.35
216;BME280;64590;48.81286795;9.14184224;2023-02-28T09:17:22;99018.13;;;0.74;63.20
216;BME280;64590;48.81286795;9.14184224;2023-02-28T09:19:48;99012.59;;;0.88;61.94
216;BME280;64590;48.81286795;9.14184224;2023-02-28T09:22:15;99011.63;;;1.15;61.36
216;BME280;64590;48.81286795;9.14184224;2023-02-28T09:24:42;98999.78;;;1.28;60.47
216;BME280;64590;48.81286795;9.14184224;2023-02-28T09:27:09;99009.59;;;1.29;59.72
216;BME280;64590;48.81286795;9.14184224;2023-02-28T09:29:36;99012.09;;;1.48;59.16
216;BME280;64590;48.81286795;9.14184224;2023-02-28T09:32:03;99014.19;;;1.51;59.86
216;BME280;64590;48.81286795;9.14184224;2023-02-28T09:34:32;99018.31;;;1.31;59.52
216;BME280;64590;48.81286795;9.14184224;2023-02-28T09:36:59;99023.88;;;1.57;59.81
216;BME280;64590;48.81286795;9.14184224;2023-02-28T09:39:25;99021.66;;;1.68;59.99
216;BME280;64590;48.81286795;9.14184224;2023-02-28T09:41:55;99025.00;;;1.65;59.95
216;BME280;64590;48.81286795;9.14184224;2023-02-28T09:44:26;99022.81;;;1.76;59.52
216;BME280;64590;48.81286795;9.14184224;2023-02-28T09:46:57;99038.09;;;1.77;58.52
216;BME280;64590;48.81286795;9.14184224;2023-02-28T09:49:34;99028.19;;;1.50;58.33
216;BME280;64590;48.81286795;9.14184224;2023-02-28T09:52:05;99030.03;;;1.72;57.35
216;BME280;64590;48.81286795;9.14184224;2023-02-28T09:54:35;99027.00;;;1.90;56.52
216;BME280;64590;48.81286795;9.14184224;2023-02-28T09:57:07;99036.22;;;1.94;56.71
216;BME280;64590;48.81286795;9.14184224;2023-02-28T09:59:44;99034.94;;;2.01;56.17
216;BME280;64590;48.81286795;9.14184224;2023-02-28T10:02:26;99030.91;;;2.07;56.27
216;BME280;64590;48.81286795;9.14184224;2023-02-28T10:05:05;99029.28;;;1.97;56.80
216;BME280;64590;48.81286795;9.14184224;2023-02-28T10:07:46;99032.06;;;2.14;56.48
216;BME280;64590;48.81286795;9.14184224;2023-02-28T10:10:20;99032.06;;;2.23;55.60
216;BME280;64590;48.81286795;9.14184224;2023-02-28T10:12:48;99014.47;;;1.98;55.98
216;BME280;64590;48.81286795;9.14184224;2023-02-28T10:15:19;99041.19;;;1.84;56.24
216;BME280;64590;48.81286795;9.14184224;2023-02-28T10:17:51;99036.06;;;2.08;56.78
216;BME280;64590;48.81286795;9.14184224;2023-02-28T10:20:23;99042.50;;;1.95;56.20
216;BME280;64590;48.81286795;9.14184224;2023-02-28T10:22:58;99044.94;;;2.05;56.24
216;BME280;64590;48.81286795;9.14184224;2023-02-28T10:25:32;99055.78;;;2.36;56.43
216;BME280;64590;48.81286795;9.14184224;2023-02-28T10:28:05;99045.31;;;2.55;55.23
216;BME280;64590;48.81286795;9.14184224;2023-02-28T10:30:36;99049.34;;;2.58;55.30
216;BME280;64590;48.81286795;9.14184224;2023-02-28T10:33:05;99048.88;;;2.56;54.60
216;BME280;64590;48.81286795;9.14184224;2023-02-28T10:35:36;99061.59;;;2.43;55.77
216;BME280;64590;48.81286795;9.14184224;2023-02-28T10:38:15;99050.47;;;2.48;54.67
216;BME280;64590;48.81286795;9.14184224;2023-02-28T10:40:42;99051.28;;;2.66;54.95
216;BME280;64590;48.81286795;9.14184224;2023-02-28T10:43:19;99039.63;;;2.87;54.47
216;BME280;64590;48.81286795;9.14184224;2023-02-28T10:45:57;99037.53;;;3.09;54.30
216;BME280;64590;48.81286795;9.14184224;2023-02-28T10:48:32;99045.75;;;3.09;53.72
216;BME280;64590;48.81286795;9.14184224;2023-02-28T10:51:01;99043.44;;;3.29;53.42
216;BME280;64590;48.81286795;9.14184224;2023-02-28T10:53:35;99040.06;;;3.32;53.40
216;BME280;64590;48.81286795;9.14184224;2023-02-28T10:56:05;99032.69;;;3.15;53.37
216;BME280;64590;48.81286795;9.14184224;2023-02-28T10:58:46;99032.50;;;3.11;53.84
216;BME280;64590;48.81286795;9.14184224;2023-02-28T11:01:16;99037.72;;;3.04;53.66
216;BME280;64590;48.81286795;9.14184224;2023-02-28T11:03:43;99035.41;;;3.15;53.42
216;BME280;64590;48.81286795;9.14184224;2023-02-28T11:06:16;99040.50;;;2.70;54.31
216;BME280;64590;48.81286795;9.14184224;2023-02-28T11:08:46;99037.25;;;2.68;54.50
216;BME280;64590;48.81286795;9.14184224;2023-02-28T11:11:13;99037.41;;;2.80;54.90
216;BME280;64590;48.81286795;9.14184224;2023-02-28T11:13:44;99039.50;;;2.92;55.46
216;BME280;64590;48.81286795;9.14184224;2023-02-28T11:16:13;99034.78;;;3.09;53.89
216;BME280;64590;48.81286795;9.14184224;2023-02-28T11:18:44;99031.09;;;2.97;53.85
216;BME280;64590;48.81286795;9.14184224;2023-02-28T11:21:19;99025.75;;;3.00;53.78
216;BME280;64590;48.81286795;9.14184224;2023-02-28T11:23:48;99023.31;;;3.16;54.68
216;BME280;64590;48.81286795;9.14184224;2023-02-28T11:26:16;99020.13;;;3.52;53.09
216;BME280;64590;48.81286795;9.14184224;2023-02-28T11:29:09;99013.41;;;3.71;52.14
216;BME280;64590;48.81286795;9.14184224;2023-02-28T11:31:37;99017.13;;;3.75;52.12
216;BME280;64590;48.81286795;9.14184224;2023-02-28T11:34:26;99016.81;;;3.67;52.32
216;BME280;64590;48.81286795;9.14184224;2023-02-28T11:36:57;99019.91;;;3.66;51.72
216;BME280;64590;48.81286795;9.14184224;2023-02-28T11:39:25;99028.28;;;3.99;52.52
216;BME280;64590;48.81286795;9.14184224;2023-02-28T11:44:51;99006.94;;;5.00;49.88
216;BME280;64590;48.81286795;9.14184224;2023-02-28T11:47:32;99039.75;;;5.63;48.63
216;BME280;64590;48.81286795;9.14184224;2023-02-28T11:50:11;98998.19;;;5.44;48.60
216;BME280;64590;48.81286795;9.14184224;2023-02-28T11:52:48;98998.78;;;5.86;47.08
216;BME280;64590;48.81286795;9.14184224;2023-02-28T11:55:19;98981.59;;;5.77;47.80
216;BME280;64590;48.81286795;9.14184224;2023-02-28T11:58:05;98982.84;;;6.04;46.57
216;BME280;64590;48.81286795;9.14184224;2023-02-28T12:00:43;98995.84;;;5.91;47.98
216;BME280;64590;48.81286795;9.14184224;2023-02-28T12:03:25;98994.91;;;6.11;46.61
216;BME280;64590;48.81286795;9.14184224;2023-02-28T12:06:01;98988.91;;;6.21;46.17
216;BME280;64590;48.81286795;9.14184224;2023-02-28T12:08:51;98986.41;;;6.57;45.81